Time;durP1;ratioP1;P1;durP2;ratioP2;P2;SDS_P1;SDS_P2;PMS_P1;PMS_P2;Temp;Humidity;BMP_temperature;BMP_pressure;BME280_temperature;BME280_humidity;BME280_pressure;Samples;Min_cycle;Max_cycle;Signal;HPM_P1;HPM_P2
2024/02/11 00:01:24;;;;;;;0.80;0.60;;;8.80;99.90;;;;;;4854943;29;20053;-86
2024/02/11 00:03:53;;;;;;;1.30;0.80;;;8.80;99.90;;;;;;4866631;29;20053;-86
2024/02/11 00:06:20;;;;;;;1.00;0.80;;;8.80;99.90;;;;;;4862486;29;20050;-86
2024/02/11 00:08:49;;;;;;;0.80;0.70;;;8.80;90.40;;;;;;4864904;29;20083;-87
2024/02/11 00:11:16;;;;;;;1.10;0.70;;;8.80;1.00;;;;;;4856932;29;20061;-86
2024/02/11 00:13:43;;;;;;;0.60;0.60;;;8.80;52.60;;;;;;4856025;29;20132;-87
2024/02/11 00:16:10;;;;;;;0.80;0.60;;;8.80;1.00;;;;;;4876524;29;20053;-87
2024/02/11 00:18:48;;;;;;;0.80;0.63;;;8.80;1.00;;;;;;4863089;29;20053;-86
2024/02/11 00:21:16;;;;;;;1.05;0.85;;;8.80;1.00;;;;;;4857681;29;20092;-88
2024/02/11 00:23:44;;;;;;;0.93;0.60;;;8.80;99.90;;;;;;4856325;29;20636;-86
2024/02/11 00:26:12;;;;;;;1.90;0.70;;;8.80;99.90;;;;;;4858015;29;20085;-86
2024/02/11 00:28:50;;;;;;;0.85;0.50;;;8.80;99.90;;;;;;4857590;29;20061;-86
2024/02/11 00:31:26;;;;;;;0.63;0.52;;;8.80;95.50;;;;;;4859432;29;20093;-87
2024/02/11 00:33:56;;;;;;;1.80;0.90;;;8.70;99.90;;;;;;4856782;29;20092;-88
2024/02/11 00:36:24;;;;;;;1.25;0.70;;;8.80;99.90;;;;;;4856419;29;20092;-86
2024/02/11 00:38:53;;;;;;;0.93;0.70;;;8.70;99.90;;;;;;4862464;29;20054;-86
2024/02/11 00:41:28;;;;;;;0.68;0.65;;;8.70;99.90;;;;;;4857911;29;20110;-86
2024/02/11 00:43:55;;;;;;;0.70;0.60;;;8.70;99.90;;;;;;4857556;29;20067;-85
2024/02/11 00:46:23;;;;;;;1.52;0.85;;;8.70;99.90;;;;;;4875239;29;20052;-86
2024/02/11 00:48:50;;;;;;;1.27;0.80;;;8.60;99.90;;;;;;4875930;29;20057;-87
2024/02/11 00:51:20;;;;;;;2.20;0.82;;;8.60;99.90;;;;;;4875747;29;20080;-87
2024/02/11 00:53:57;;;;;;;1.60;0.93;;;8.50;61.10;;;;;;4865121;29;20061;-86
2024/02/11 00:56:30;;;;;;;1.67;1.13;;;8.50;99.90;;;;;;4841175;29;20103;-85
2024/02/11 00:58:59;;;;;;;1.77;0.80;;;8.50;99.90;;;;;;4859928;29;20069;-87
2024/02/11 01:01:28;;;;;;;2.13;0.80;;;8.50;99.90;;;;;;4864093;29;20160;-87
2024/02/11 01:04:07;;;;;;;0.98;0.70;;;8.50;99.90;;;;;;4864679;29;20053;-86
2024/02/11 01:06:36;;;;;;;0.80;0.80;;;8.50;99.90;;;;;;4856769;29;20357;-87
2024/02/11 01:09:03;;;;;;;0.73;0.60;;;8.50;99.90;;;;;;4858717;29;20072;-87
2024/02/11 01:11:32;;;;;;;0.80;0.70;;;8.50;95.20;;;;;;4844364;29;20053;-86
2024/02/11 01:14:00;;;;;;;0.95;0.75;;;8.50;99.90;;;;;;4868328;29;20057;-87
2024/02/11 01:16:28;;;;;;;1.73;0.80;;;8.50;99.90;;;;;;4875153;29;20789;-86
2024/02/11 01:18:55;;;;;;;0.90;0.75;;;8.50;99.90;;;;;;4858106;29;20057;-85
2024/02/11 01:21:23;;;;;;;0.70;0.60;;;8.40;99.90;;;;;;4857326;29;20084;-87
2024/02/11 01:23:52;;;;;;;0.88;0.70;;;8.40;1.00;;;;;;4856612;29;20125;-86
2024/02/11 01:26:19;;;;;;;0.30;0.30;;;8.40;99.90;;;;;;4856951;29;20173;-86
2024/02/11 01:29:08;;;;;;;0.60;0.60;;;8.40;99.90;;;;;;4854750;29;20053;-86
2024/02/11 01:31:38;;;;;;;1.70;0.90;;;8.40;99.90;;;;;;4854749;29;20046;-85
2024/02/11 01:34:16;;;;;;;0.68;0.60;;;8.40;99.90;;;;;;4857265;29;20064;-86
2024/02/11 01:36:49;;;;;;;1.48;0.95;;;8.30;99.90;;;;;;4857176;29;20495;-86
2024/02/11 01:39:19;;;;;;;0.70;0.50;;;8.30;99.90;;;;;;4836616;29;20114;-86
2024/02/11 01:41:47;;;;;;;0.52;0.52;;;8.30;99.90;;;;;;4836550;29;20054;-85
2024/02/11 01:44:15;;;;;;;1.30;0.82;;;8.30;99.90;;;;;;4857730;29;20054;-86
2024/02/11 01:46:43;;;;;;;2.65;0.70;;;8.30;99.90;;;;;;4843958;29;20045;-87
2024/02/11 01:49:11;;;;;;;1.23;0.68;;;8.30;1.00;;;;;;4860044;29;20058;-86
2024/02/11 01:51:43;;;;;;;1.05;0.85;;;8.30;1.00;;;;;;4859573;29;20105;-86
2024/02/11 01:54:14;;;;;;;1.55;0.95;;;8.30;99.90;;;;;;4859405;29;20052;-86
2024/02/11 01:56:47;;;;;;;1.35;1.05;;;8.30;1.00;;;;;;4860045;29;20049;-87
2024/02/11 01:59:21;;;;;;;1.38;0.77;;;8.30;1.00;;;;;;4860647;29;20057;-86
2024/02/11 02:01:49;;;;;;;1.05;0.93;;;8.30;1.00;;;;;;4858599;29;20050;-86
2024/02/11 02:04:16;;;;;;;0.82;0.73;;;8.30;1.00;;;;;;4855448;29;20068;-86
2024/02/11 02:06:43;;;;;;;1.10;0.70;;;8.30;1.00;;;;;;4855251;29;20106;-86
2024/02/11 02:09:21;;;;;;;1.83;1.48;;;8.30;1.00;;;;;;4868633;29;20065;-86
2024/02/11 02:11:54;;;;;;;1.00;0.90;;;8.30;1.00;;;;;;4848367;29;20091;-86
2024/02/11 02:14:28;;;;;;;;;;;8.30;1.00;;;;;;4870563;29;20548;-87
2024/02/11 02:16:59;;;;;;;1.50;1.10;;;8.30;99.90;;;;;;4878725;29;20424;-87
2024/02/11 02:19:29;;;;;;;1.65;1.02;;;8.30;1.00;;;;;;4860438;29;20050;-87
2024/02/11 02:21:57;;;;;;;1.42;0.95;;;8.30;1.00;;;;;;4859833;29;20053;-87
2024/02/11 02:24:34;;;;;;;1.13;0.90;;;8.30;1.00;;;;;;4860561;29;20058;-87
2024/02/11 02:27:05;;;;;;;1.80;0.93;;;8.30;29.90;;;;;;4860142;29;20412;-87
2024/02/11 02:29:33;;;;;;;1.92;0.90;;;8.40;68.00;;;;;;4868539;29;20057;-87
2024/02/11 02:31:59;;;;;;;1.90;0.90;;;8.40;1.00;;;;;;4858092;29;20110;-87
2024/02/11 02:34:28;;;;;;;0.93;0.80;;;8.40;1.00;;;;;;4857835;29;20053;-87
2024/02/11 02:36:56;;;;;;;0.70;0.70;;;8.40;99.90;;;;;;4856577;29;20089;-87
2024/02/11 02:39:25;;;;;;;1.17;0.90;;;8.40;1.00;;;;;;4867219;29;20060;-87
2024/02/11 02:41:52;;;;;;;1.35;0.75;;;8.40;1.00;;;;;;4876773;29;20068;-87
2024/02/11 02:44:18;;;;;;;1.17;0.65;;;8.40;99.90;;;;;;4875753;29;20082;-88
2024/02/11 02:46:45;;;;;;;1.48;1.00;;;8.30;99.90;;;;;;4860785;29;20189;-87
2024/02/11 02:49:13;;;;;;;2.05;1.10;;;8.30;99.90;;;;;;4867343;29;20049;-87
2024/02/11 02:51:46;;;;;;;0.98;0.70;;;8.30;99.90;;;;;;4858628;29;20045;-87
2024/02/11 02:54:27;;;;;;;2.00;1.00;;;8.30;1.00;;;;;;4856438;29;20064;-87
2024/02/11 02:56:54;;;;;;;1.58;1.10;;;8.30;99.90;;;;;;4858419;29;20046;-87
2024/02/11 02:59:22;;;;;;;2.17;1.17;;;8.30;99.90;;;;;;4858721;29;20057;-87
2024/02/11 03:02:01;;;;;;;1.95;1.00;;;8.30;1.00;;;;;;4859656;29;20106;-87
2024/02/11 03:04:28;;;;;;;2.17;1.10;;;8.30;1.00;;;;;;4844126;29;20057;-88
2024/02/11 03:06:55;;;;;;;1.08;0.90;;;8.30;1.00;;;;;;4858751;29;20085;-88
2024/02/11 03:09:38;;;;;;;1.35;1.00;;;8.30;1.00;;;;;;4866086;29;20076;-87
2024/02/11 03:12:15;;;;;;;1.17;1.00;;;8.30;95.90;;;;;;4858363;29;20073;-87
2024/02/11 03:14:51;;;;;;;1.40;1.20;;;8.30;1.00;;;;;;4859237;29;20053;-87
2024/02/11 03:17:29;;;;;;;1.58;1.20;;;8.30;99.90;;;;;;4856321;29;20394;-87
2024/02/11 03:20:02;;;;;;;2.03;1.40;;;8.30;99.90;;;;;;4853577;29;20045;-88
2024/02/11 03:22:29;;;;;;;1.70;1.30;;;8.20;1.00;;;;;;4857602;29;20497;-85
2024/02/11 03:25:00;;;;;;;1.65;1.30;;;8.20;1.00;;;;;;4858884;29;20554;-87
2024/02/11 03:27:34;;;;;;;2.08;1.38;;;8.20;23.30;;;;;;4858106;29;20053;-87
2024/02/11 03:30:01;;;;;;;2.08;1.30;;;8.20;99.90;;;;;;4859179;29;20061;-87
2024/02/11 03:32:29;;;;;;;1.30;1.17;;;8.20;99.90;;;;;;4838435;29;20065;-87
2024/02/11 03:34:56;;;;;;;2.53;1.02;;;8.20;99.90;;;;;;4840971;29;20053;-87
2024/02/11 03:37:23;;;;;;;1.40;1.23;;;8.20;1.00;;;;;;4856274;29;20057;-86
2024/02/11 03:39:51;;;;;;;1.48;1.05;;;8.20;99.90;;;;;;4863103;29;20175;-86
2024/02/11 03:42:19;;;;;;;2.35;1.45;;;8.30;76.70;;;;;;4857113;29;20061;-87
2024/02/11 03:44:47;;;;;;;2.92;1.95;;;8.30;99.90;;;;;;4868952;29;20139;-86
2024/02/11 03:47:22;;;;;;;1.27;0.90;;;8.30;99.90;;;;;;4876272;29;20065;-86
2024/02/11 03:49:52;;;;;;;1.98;0.95;;;8.30;1.00;;;;;;4865231;29;20412;-87
2024/02/11 03:52:22;;;;;;;1.17;1.00;;;8.30;99.90;;;;;;4856755;29;20117;-87
2024/02/11 03:54:50;;;;;;;1.33;0.77;;;8.40;99.90;;;;;;4858909;29;20385;-87
2024/02/11 03:57:33;;;;;;;1.23;0.95;;;8.40;1.00;;;;;;4859857;29;20140;-86
2024/02/11 04:00:12;;;;;;;1.00;0.90;;;8.30;1.00;;;;;;4857682;29;20057;-87
2024/02/11 04:02:39;;;;;;;1.48;1.00;;;8.40;1.00;;;;;;4862919;29;20820;-88
2024/02/11 04:05:12;;;;;;;1.95;1.33;;;8.30;1.00;;;;;;4863713;29;20053;-87
2024/02/11 04:07:45;;;;;;;1.75;1.20;;;8.30;99.90;;;;;;4856115;29;20474;-87
2024/02/11 04:10:22;;;;;;;2.35;1.35;;;8.30;1.00;;;;;;4858218;29;20617;-87
2024/02/11 04:12:52;;;;;;;2.08;1.20;;;8.30;1.00;;;;;;4857787;29;20049;-88
2024/02/11 04:15:22;;;;;;;1.90;1.08;;;8.30;99.90;;;;;;4857546;29;20891;-86
2024/02/11 04:18:10;;;;;;;2.25;1.00;;;8.40;99.90;;;;;;4856894;29;20054;-87
2024/02/11 04:20:48;;;;;;;1.45;1.00;;;8.40;99.90;;;;;;4875338;29;20053;-87
2024/02/11 04:23:33;;;;;;;2.00;1.13;;;8.30;1.00;;;;;;4865837;29;20057;-88
2024/02/11 04:26:07;;;;;;;1.60;1.17;;;8.30;1.00;;;;;;4858308;29;20156;-88
2024/02/11 04:28:37;;;;;;;1.00;0.90;;;8.20;1.00;;;;;;4857910;29;20057;-88
2024/02/11 04:31:09;;;;;;;1.10;1.00;;;8.20;1.00;;;;;;4842640;29;20057;-88
2024/02/11 04:34:14;;;;;;;1.20;1.00;;;8.20;99.90;;;;;;4841972;29;20456;-88
2024/02/11 04:36:41;;;;;;;2.08;1.27;;;8.20;99.90;;;;;;4858012;29;20053;-89
2024/02/11 04:39:08;;;;;;;1.10;1.00;;;8.20;99.90;;;;;;4856590;29;20054;-87
2024/02/11 04:41:50;;;;;;;0.95;0.80;;;8.20;99.90;;;;;;4857668;29;20438;-87
2024/02/11 04:44:18;;;;;;;0.80;0.75;;;8.30;99.90;;;;;;4849744;29;20060;-88
2024/02/11 04:46:49;;;;;;;0.77;0.60;;;8.30;99.90;;;;;;4848117;29;20053;-89
2024/02/11 04:49:35;;;;;;;1.27;0.90;;;8.30;99.90;;;;;;4856506;29;20063;-88
2024/02/11 04:52:07;;;;;;;0.73;0.45;;;8.30;99.90;;;;;;4856350;29;20053;-88
2024/02/11 04:54:35;;;;;;;1.40;0.95;;;8.30;99.90;;;;;;4841856;29;20286;-88
2024/02/11 04:57:06;;;;;;;1.20;1.10;;;8.30;99.90;;;;;;4841875;29;20416;-88
2024/02/11 04:59:35;;;;;;;1.10;0.95;;;8.40;99.90;;;;;;4857039;29;20057;-88
2024/02/11 05:02:04;;;;;;;0.80;0.70;;;8.40;34.40;;;;;;4856740;29;20058;-88
2024/02/11 05:04:38;;;;;;;1.30;0.90;;;8.40;1.00;;;;;;4858234;29;20049;-88
2024/02/11 05:07:07;;;;;;;0.98;0.77;;;8.30;99.90;;;;;;4856487;29;20053;-89
2024/02/11 05:09:45;;;;;;;1.63;0.77;;;8.30;1.00;;;;;;4858204;29;20545;-88
2024/02/11 05:12:25;;;;;;;1.10;1.00;;;8.30;1.00;;;;;;4856295;29;20049;-89
2024/02/11 05:15:01;;;;;;;1.58;0.95;;;8.30;1.00;;;;;;4869903;29;20087;-88
2024/02/11 05:17:30;;;;;;;1.55;0.90;;;8.20;99.90;;;;;;4876280;29;20049;-88
2024/02/11 05:20:13;;;;;;;1.10;0.98;;;8.20;1.00;;;;;;4845991;29;20054;-88
2024/02/11 05:22:44;;;;;;;1.13;1.00;;;8.10;43.30;;;;;;4849231;29;20078;-88
2024/02/11 05:25:26;;;;;;;1.48;1.10;;;8.10;84.70;;;;;;4857422;29;20059;-88
2024/02/11 05:27:58;;;;;;;2.47;1.17;;;8.10;99.90;;;;;;4857298;29;20053;-88
2024/02/11 05:30:34;;;;;;;1.10;1.00;;;8.10;99.90;;;;;;4856256;29;20053;-87
2024/02/11 05:33:16;;;;;;;1.27;0.95;;;8.10;99.90;;;;;;4857485;29;20458;-87
2024/02/11 05:35:44;;;;;;;1.85;1.15;;;8.10;99.90;;;;;;4856586;29;20058;-87
2024/02/11 05:38:19;;;;;;;1.50;0.90;;;8.10;99.90;;;;;;4840735;29;20068;-88
2024/02/11 05:41:10;;;;;;;1.42;1.10;;;8.10;99.90;;;;;;4827243;29;20064;-87
2024/02/11 05:43:48;;;;;;;1.67;1.00;;;8.10;1.00;;;;;;4860359;29;20053;-87
2024/02/11 05:46:17;;;;;;;1.00;0.85;;;8.20;1.00;;;;;;4876446;29;20068;-88
2024/02/11 05:48:49;;;;;;;0.95;0.75;;;8.20;1.00;;;;;;4874304;29;20057;-87
2024/02/11 05:51:22;;;;;;;0.90;0.73;;;8.20;1.00;;;;;;4856137;29;20062;-88
2024/02/11 05:53:56;;;;;;;1.52;1.02;;;8.20;99.90;;;;;;4861827;29;20053;-87
2024/02/11 05:56:27;;;;;;;1.05;0.80;;;8.30;1.00;;;;;;4856537;29;20057;-87
2024/02/11 05:58:59;;;;;;;0.80;0.80;;;8.30;1.00;;;;;;4857798;29;21637;-88
2024/02/11 06:01:31;;;;;;;0.95;0.85;;;8.30;99.90;;;;;;4854381;29;20052;-86
2024/02/11 06:04:06;;;;;;;0.95;0.85;;;8.30;99.90;;;;;;4841135;29;20113;-88
2024/02/11 06:06:37;;;;;;;0.77;0.77;;;8.20;99.90;;;;;;4836269;29;20057;-89
2024/02/11 06:09:24;;;;;;;0.82;0.77;;;8.30;1.00;;;;;;4842219;29;20204;-88
2024/02/11 06:11:58;;;;;;;2.20;0.80;;;8.30;99.90;;;;;;4870339;29;20136;-88
2024/02/11 06:14:30;;;;;;;0.73;0.60;;;8.30;99.90;;;;;;4859405;29;20093;-88
2024/02/11 06:16:57;;;;;;;1.60;0.85;;;8.30;99.90;;;;;;4854264;29;20065;-89
2024/02/11 06:19:28;;;;;;;0.75;0.50;;;8.30;99.90;;;;;;4859981;29;20049;-87
2024/02/11 06:21:55;;;;;;;0.80;0.65;;;8.40;99.90;;;;;;4868440;29;20183;-87
2024/02/11 06:24:37;;;;;;;1.48;1.00;;;8.30;99.90;;;;;;4872177;29;20819;-88
2024/02/11 06:27:12;;;;;;;2.45;0.80;;;8.30;46.70;;;;;;4873445;29;20065;-88
2024/02/11 06:29:50;;;;;;;0.93;0.70;;;8.30;99.90;;;;;;4860419;29;20046;-87
2024/02/11 06:32:21;;;;;;;1.00;0.70;;;8.30;99.90;;;;;;4859555;29;20098;-88
2024/02/11 06:34:49;;;;;;;1.17;0.85;;;8.30;99.90;;;;;;4857980;29;20088;-87
2024/02/11 06:37:31;;;;;;;0.98;0.80;;;8.40;99.90;;;;;;4841366;29;20404;-88
2024/02/11 06:39:58;;;;;;;0.77;0.75;;;8.30;99.90;;;;;;4826310;29;20054;-89
2024/02/11 06:42:30;;;;;;;1.05;0.75;;;8.40;99.90;;;;;;4852573;29;20061;-88
2024/02/11 06:44:58;;;;;;;0.90;0.70;;;8.40;1.00;;;;;;4859245;29;20061;-88
2024/02/11 06:47:30;;;;;;;1.67;1.33;;;8.50;99.90;;;;;;4843157;29;20061;-88
2024/02/11 06:49:59;;;;;;;0.90;0.80;;;8.50;99.90;;;;;;4858108;29;20065;-88
2024/02/11 06:52:28;;;;;;;1.50;0.93;;;8.40;1.00;;;;;;4853853;29;20064;-88
2024/02/11 06:55:18;;;;;;;1.67;1.00;;;8.40;1.00;;;;;;4856535;29;20217;-88
2024/02/11 06:58:00;;;;;;;1.42;1.20;;;8.40;1.00;;;;;;4857741;29;20136;-87
2024/02/11 07:00:29;;;;;;;2.00;1.17;;;8.40;1.00;;;;;;4857824;29;20058;-87
2024/02/11 07:03:03;;;;;;;1.02;0.95;;;8.30;1.00;;;;;;4860353;29;20137;-87
2024/02/11 07:05:31;;;;;;;1.35;0.88;;;8.40;99.90;;;;;;4859521;29;20046;-86
2024/02/11 07:08:01;;;;;;;1.10;1.00;;;8.40;99.90;;;;;;4854260;29;20157;-87
2024/02/11 07:10:29;;;;;;;0.85;0.80;;;8.40;99.90;;;;;;4855919;29;20053;-86
2024/02/11 07:12:57;;;;;;;1.20;0.90;;;8.40;98.10;;;;;;4852645;29;20058;-84
2024/02/11 07:15:25;;;;;;;1.15;0.90;;;8.40;99.90;;;;;;4848941;29;20054;-82
2024/02/11 07:17:52;;;;;;;1.30;1.00;;;8.40;99.90;;;;;;4851993;29;20069;-83
2024/02/11 07:20:22;;;;;;;1.58;1.00;;;8.40;99.90;;;;;;4851870;29;20053;-83
2024/02/11 07:22:50;;;;;;;1.50;1.20;;;8.40;99.90;;;;;;4847201;29;20046;-83
2024/02/11 07:25:17;;;;;;;2.72;1.20;;;8.40;99.90;;;;;;4849423;29;20053;-82
2024/02/11 07:27:45;;;;;;;1.92;1.42;;;8.40;99.90;;;;;;4849046;29;20073;-82
2024/02/11 07:30:13;;;;;;;1.52;1.10;;;8.40;99.90;;;;;;4849322;29;20152;-82
2024/02/11 07:32:42;;;;;;;1.55;1.17;;;8.40;1.00;;;;;;4848758;29;20072;-83
2024/02/11 07:35:12;;;;;;;1.88;1.27;;;8.40;1.00;;;;;;4848986;29;20057;-84
2024/02/11 07:37:40;;;;;;;1.67;1.25;;;8.40;56.60;;;;;;4850595;29;20049;-81
2024/02/11 07:40:11;;;;;;;2.17;1.40;;;8.40;99.90;;;;;;4850193;29;20053;-83
2024/02/11 07:42:40;;;;;;;2.97;1.40;;;8.40;99.90;;;;;;4846976;29;20053;-83
2024/02/11 07:45:08;;;;;;;3.28;1.70;;;8.30;99.90;;;;;;4833256;29;20081;-83
2024/02/11 07:47:34;;;;;;;2.20;1.42;;;8.30;99.90;;;;;;4850063;29;20117;-84
2024/02/11 07:50:02;;;;;;;1.80;1.13;;;8.30;99.90;;;;;;4852180;29;20045;-83
2024/02/11 07:52:31;;;;;;;2.00;1.40;;;8.30;99.90;;;;;;4851842;29;20094;-83
2024/02/11 07:54:57;;;;;;;4.30;1.65;;;8.30;99.90;;;;;;4850887;29;20049;-86
2024/02/11 07:57:26;;;;;;;2.38;1.80;;;8.30;1.00;;;;;;4847222;29;20057;-84
2024/02/11 07:59:53;;;;;;;2.47;1.80;;;8.30;51.60;;;;;;4848506;29;20057;-83
2024/02/11 08:02:20;;;;;;;2.15;1.65;;;8.30;71.30;;;;;;4850573;29;20459;-85
2024/02/11 08:04:47;;;;;;;2.30;1.95;;;8.30;99.90;;;;;;4851632;29;20049;-84
2024/02/11 08:07:15;;;;;;;1.73;1.63;;;8.30;99.90;;;;;;4849809;29;20053;-83
2024/02/11 08:09:44;;;;;;;2.70;2.05;;;8.30;99.90;;;;;;4849382;29;20061;-84
2024/02/11 08:12:10;;;;;;;1.85;1.65;;;8.40;99.90;;;;;;4859670;29;20172;-86
2024/02/11 08:14:37;;;;;;;1.85;1.52;;;8.40;99.90;;;;;;4841012;29;20050;-85
2024/02/11 08:17:05;;;;;;;1.80;1.30;;;8.40;99.90;;;;;;4851314;29;20061;-83
2024/02/11 08:19:32;;;;;;;2.85;1.65;;;8.40;1.00;;;;;;4851070;29;20426;-79
2024/02/11 08:21:59;;;;;;;2.20;1.55;;;8.40;1.00;;;;;;4851559;29;20089;-82
2024/02/11 08:24:26;;;;;;;2.15;1.88;;;8.40;1.00;;;;;;4854650;29;20129;-81
2024/02/11 08:26:54;;;;;;;2.10;1.80;;;8.40;1.00;;;;;;4851540;29;20065;-82
2024/02/11 08:29:28;;;;;;;2.33;1.90;;;8.40;1.00;;;;;;4851725;29;20390;-87
2024/02/11 08:32:04;;;;;;;1.27;1.13;;;8.40;1.00;;;;;;4856027;29;20061;-88
2024/02/11 08:34:38;;;;;;;2.47;1.50;;;8.40;50.80;;;;;;4836551;29;20512;-87
2024/02/11 08:37:11;;;;;;;2.17;1.58;;;8.50;99.90;;;;;;4841852;29;20053;-86
2024/02/11 08:39:38;;;;;;;1.40;0.98;;;8.50;99.90;;;;;;4853095;29;20111;-86
2024/02/11 08:42:08;;;;;;;1.70;1.45;;;8.50;99.90;;;;;;4848343;29;20452;-87
2024/02/11 08:44:41;;;;;;;1.40;1.08;;;8.60;99.90;;;;;;4853566;29;20919;-85
2024/02/11 08:47:08;;;;;;;1.63;1.23;;;8.60;99.90;;;;;;4853247;29;20741;-83
2024/02/11 08:49:35;;;;;;;2.47;1.30;;;8.60;99.90;;;;;;4845242;29;20121;-85
2024/02/11 08:52:03;;;;;;;1.35;1.00;;;8.60;99.90;;;;;;4844668;29;20148;-83
2024/02/11 08:54:30;;;;;;;1.85;1.30;;;8.60;99.60;;;;;;4849708;29;20259;-82
2024/02/11 08:56:56;;;;;;;2.25;1.42;;;8.60;20.10;;;;;;4852287;29;20085;-82
2024/02/11 08:59:24;;;;;;;1.20;1.10;;;8.60;1.00;;;;;;4844880;29;20389;-84
2024/02/11 09:01:52;;;;;;;1.70;1.40;;;8.60;66.60;;;;;;4869166;29;20057;-83
2024/02/11 09:04:27;;;;;;;2.33;1.42;;;8.70;26.00;;;;;;4854191;29;20139;-81
2024/02/11 09:06:55;;;;;;;1.70;1.20;;;8.70;20.10;;;;;;4838799;29;20080;-83
2024/02/11 09:09:29;;;;;;;1.70;1.30;;;8.70;31.50;;;;;;4857130;29;20084;-85
2024/02/11 09:11:57;;;;;;;2.03;1.42;;;8.80;56.70;;;;;;4848451;29;20061;-80
2024/02/11 09:14:29;;;;;;;1.90;1.30;;;8.80;1.00;;;;;;4850598;29;20064;-83
2024/02/11 09:16:59;;;;;;;1.55;1.23;;;8.80;14.00;;;;;;4850910;29;20053;-84
2024/02/11 09:19:31;;;;;;;1.60;1.35;;;8.90;1.00;;;;;;4854678;29;20076;-87
2024/02/11 09:21:58;;;;;;;2.08;1.60;;;8.90;1.00;;;;;;4849479;29;20049;-72
2024/02/11 09:24:25;;;;;;;2.40;1.65;;;8.90;99.90;;;;;;4845898;29;21040;-73
2024/02/11 09:26:52;;;;;;;3.55;2.30;;;8.80;99.90;;;;;;4846717;29;20148;-73
2024/02/11 09:29:20;;;;;;;5.53;2.40;;;8.90;24.80;;;;;;4864306;29;20124;-73
2024/02/11 09:31:48;;;;;;;2.45;2.25;;;8.80;99.90;;;;;;4858205;29;20056;-73
2024/02/11 09:34:15;;;;;;;2.60;1.98;;;8.80;99.90;;;;;;4847025;29;20077;-72
2024/02/11 09:36:43;;;;;;;3.63;3.00;;;8.80;99.90;;;;;;4850911;29;20053;-73
2024/02/11 09:39:10;;;;;;;4.55;2.90;;;8.70;99.90;;;;;;4847545;29;20056;-73
2024/02/11 09:41:38;;;;;;;2.60;2.28;;;8.70;99.90;;;;;;4846551;29;20089;-73
2024/02/11 09:44:05;;;;;;;2.92;2.40;;;8.70;1.00;;;;;;4847641;29;20057;-73
2024/02/11 09:46:36;;;;;;;1.60;1.48;;;8.80;99.90;;;;;;4845173;29;20081;-73
2024/02/11 09:49:18;;;;;;;3.30;2.33;;;8.80;1.00;;;;;;4849876;29;20132;-73
2024/02/11 09:51:48;;;;;;;2.85;2.17;;;8.80;99.90;;;;;;4843974;29;20061;-73
2024/02/11 09:54:16;;;;;;;3.33;2.30;;;8.90;99.90;;;;;;4846948;29;20135;-74
2024/02/11 09:56:43;;;;;;;2.42;2.20;;;9.00;99.90;;;;;;4853487;29;20057;-73
2024/02/11 09:59:10;;;;;;;2.83;2.53;;;9.00;99.90;;;;;;4844549;29;20148;-74
2024/02/11 10:01:38;;;;;;;2.30;1.90;;;9.10;99.90;;;;;;4830154;29;20488;-73
2024/02/11 10:04:06;;;;;;;3.22;2.35;;;9.20;99.90;;;;;;4845873;29;20113;-73
2024/02/11 10:06:41;;;;;;;3.20;2.42;;;9.30;99.90;;;;;;4850654;29;20088;-74
2024/02/11 10:09:12;;;;;;;3.35;2.50;;;9.30;1.00;;;;;;4856908;29;20081;-74
2024/02/11 10:11:40;;;;;;;3.03;2.22;;;9.40;99.90;;;;;;4857199;29;20061;-74
2024/02/11 10:14:13;;;;;;;3.00;2.33;;;9.50;99.90;;;;;;4848692;29;20583;-75
2024/02/11 10:16:40;;;;;;;2.70;2.03;;;9.60;99.90;;;;;;4838309;29;20057;-74
2024/02/11 10:19:07;;;;;;;2.15;1.92;;;9.80;99.90;;;;;;4849487;29;20053;-73
2024/02/11 10:21:34;;;;;;;1.83;1.60;;;9.80;1.00;;;;;;4834485;29;20069;-74
2024/02/11 10:24:05;;;;;;;2.45;1.77;;;10.00;1.00;;;;;;4845648;29;20069;-73
2024/02/11 10:26:32;;;;;;;3.28;2.17;;;10.10;99.90;;;;;;4853812;29;20061;-73
2024/02/11 10:29:03;;;;;;;3.47;2.30;;;10.10;1.00;;;;;;4840296;29;20054;-74
2024/02/11 10:31:30;;;;;;;2.83;1.73;;;10.10;99.90;;;;;;4841806;29;20061;-73
2024/02/11 10:34:00;;;;;;;3.05;2.30;;;10.20;99.90;;;;;;4844224;29;20137;-73
2024/02/11 10:36:28;;;;;;;2.13;1.92;;;10.10;99.90;;;;;;4845848;29;20059;-73
2024/02/11 10:38:56;;;;;;;2.58;2.20;;;10.10;99.90;;;;;;4850333;29;20411;-73
2024/02/11 10:41:23;;;;;;;3.10;2.30;;;10.10;99.90;;;;;;4847671;29;20084;-74
2024/02/11 10:43:50;;;;;;;2.20;1.80;;;10.10;99.90;;;;;;4846500;29;20419;-73
2024/02/11 10:46:18;;;;;;;2.17;1.80;;;10.00;99.90;;;;;;4847519;29;20152;-73
2024/02/11 10:48:45;;;;;;;1.73;1.58;;;10.20;99.90;;;;;;4852360;29;20045;-73
2024/02/11 10:51:23;;;;;;;2.20;1.95;;;10.40;99.90;;;;;;4842220;29;20053;-73
2024/02/11 10:53:58;;;;;;;2.55;1.83;;;10.70;99.90;;;;;;4841752;29;20061;-73
2024/02/11 10:56:25;;;;;;;2.67;1.85;;;10.90;1.00;;;;;;4852979;29;20050;-73
2024/02/11 10:59:08;;;;;;;2.33;1.90;;;10.90;99.90;;;;;;4841490;29;20081;-73
2024/02/11 11:01:39;;;;;;;4.05;2.67;;;10.90;99.90;;;;;;4846068;29;20089;-73
2024/02/11 11:04:09;;;;;;;3.25;2.60;;;10.80;99.90;;;;;;4844131;29;20049;-73
2024/02/11 11:06:37;;;;;;;3.08;2.50;;;10.70;99.90;;;;;;4830870;29;20745;-74
2024/02/11 11:09:05;;;;;;;2.90;2.10;;;10.70;99.90;;;;;;4847230;29;20053;-75
2024/02/11 11:11:32;;;;;;;2.78;2.05;;;10.70;99.90;;;;;;4833172;29;20065;-74
2024/02/11 11:14:10;;;;;;;2.33;1.95;;;10.80;99.90;;;;;;4848377;29;20057;-73
2024/02/11 11:16:43;;;;;;;3.42;2.42;;;10.90;1.00;;;;;;4846828;29;20058;-74
2024/02/11 11:19:13;;;;;;;2.47;1.90;;;10.90;99.90;;;;;;4845272;29;20191;-74
2024/02/11 11:21:50;;;;;;;3.38;2.33;;;10.90;99.90;;;;;;4839368;29;20128;-73
2024/02/11 11:24:23;;;;;;;3.25;2.63;;;10.90;99.90;;;;;;4849823;29;20076;-74
2024/02/11 11:26:56;;;;;;;7.90;3.60;;;10.80;99.90;;;;;;4840847;29;20049;-73
2024/02/11 11:29:27;;;;;;;4.25;3.13;;;10.60;99.90;;;;;;4848552;29;20061;-73
2024/02/11 11:31:56;;;;;;;5.07;3.05;;;10.60;99.90;;;;;;4833505;29;20637;-74
2024/02/11 11:34:23;;;;;;;4.75;3.53;;;10.60;99.90;;;;;;4851703;29;20176;-74
2024/02/11 11:36:51;;;;;;;4.82;3.95;;;10.70;99.90;;;;;;4832592;29;20234;-74
2024/02/11 11:39:19;;;;;;;5.13;3.60;;;10.70;99.90;;;;;;4843537;29;20088;-73
2024/02/11 11:41:46;;;;;;;3.45;3.05;;;10.90;99.90;;;;;;4812280;29;20064;-73
2024/02/11 11:44:19;;;;;;;4.07;3.00;;;11.00;99.90;;;;;;4844597;29;20737;-74
2024/02/11 11:46:46;;;;;;;3.25;2.10;;;11.20;99.90;;;;;;4843913;29;20057;-74
2024/02/11 11:49:13;;;;;;;4.47;2.10;;;11.30;99.90;;;;;;4828354;29;20063;-74
2024/02/11 11:51:39;;;;;;;3.33;2.13;;;11.40;99.90;;;;;;4842921;29;20199;-74
2024/02/11 11:54:09;;;;;;;3.00;2.20;;;11.40;99.90;;;;;;4843415;29;20378;-73
2024/02/11 11:56:37;;;;;;;3.92;2.28;;;11.50;99.90;;;;;;4842552;29;20928;-73
2024/02/11 11:59:04;;;;;;;5.82;2.95;;;11.30;99.90;;;;;;4842292;29;20114;-73
2024/02/11 12:01:32;;;;;;;2.85;2.28;;;11.30;99.90;;;;;;4822628;29;20050;-74
2024/02/11 12:03:58;;;;;;;3.70;2.35;;;11.30;99.90;;;;;;4827396;29;20145;-72
2024/02/11 12:06:26;;;;;;;3.13;1.98;;;11.30;99.90;;;;;;4841546;29;20441;-73
2024/02/11 12:08:54;;;;;;;3.53;2.28;;;11.40;99.90;;;;;;4837920;29;20082;-73
2024/02/11 12:11:20;;;;;;;4.22;2.83;;;11.40;99.90;;;;;;4846413;29;20066;-73
2024/02/11 12:13:48;;;;;;;4.38;2.58;;;11.40;99.90;;;;;;4842102;29;21392;-73
2024/02/11 12:16:17;;;;;;;2.78;1.75;;;11.40;99.90;;;;;;4843699;29;20053;-73
2024/02/11 12:18:44;;;;;;;2.13;1.50;;;11.50;99.90;;;;;;4841929;29;20057;-73
2024/02/11 12:21:13;;;;;;;2.78;2.05;;;11.50;99.90;;;;;;4830474;29;20067;-73
2024/02/11 12:23:40;;;;;;;2.58;2.13;;;11.50;99.90;;;;;;4826146;29;20073;-74
2024/02/11 12:26:07;;;;;;;2.15;1.38;;;11.50;99.90;;;;;;4829479;29;20059;-73
2024/02/11 12:28:39;;;;;;;2.33;1.70;;;11.70;99.90;;;;;;4826799;29;20052;-74
2024/02/11 12:31:12;;;;;;;2.00;1.38;;;11.80;99.90;;;;;;4846316;29;20045;-74
2024/02/11 12:33:49;;;;;;;2.20;1.40;;;11.80;99.90;;;;;;4843917;29;20053;-74
2024/02/11 12:36:25;;;;;;;5.85;2.08;;;11.60;99.90;;;;;;4859947;29;20085;-74
2024/02/11 12:38:53;;;;;;;3.55;1.50;;;11.50;99.90;;;;;;4828402;29;20429;-74
2024/02/11 12:41:24;;;;;;;3.33;1.58;;;11.40;99.90;;;;;;4832493;29;20085;-74
2024/02/11 12:43:52;;;;;;;3.10;1.67;;;11.50;99.90;;;;;;4841642;29;20057;-74
2024/02/11 12:46:19;;;;;;;2.22;1.40;;;11.50;99.90;;;;;;4825721;29;20117;-74
2024/02/11 12:48:46;;;;;;;2.10;1.27;;;11.60;99.90;;;;;;4843584;29;20490;-74
2024/02/11 12:51:14;;;;;;;2.72;1.45;;;11.50;99.90;;;;;;4826926;29;20224;-73
2024/02/11 12:53:41;;;;;;;2.63;1.42;;;11.30;99.90;;;;;;4827272;29;20103;-74
2024/02/11 12:56:12;;;;;;;2.40;2.08;;;11.20;99.90;;;;;;4842055;29;20061;-73
2024/02/11 12:58:39;;;;;;;2.65;1.40;;;11.20;99.90;;;;;;4848020;29;20144;-73
2024/02/11 13:01:10;;;;;;;3.95;1.90;;;11.20;99.90;;;;;;4842336;29;20048;-74
2024/02/11 13:03:41;;;;;;;2.95;1.80;;;11.20;99.90;;;;;;4842420;29;20786;-73
2024/02/11 13:06:08;;;;;;;3.05;1.77;;;11.20;99.90;;;;;;4830138;29;20053;-73
2024/02/11 13:08:36;;;;;;;5.38;2.08;;;11.20;99.90;;;;;;4841592;29;20057;-73
2024/02/11 13:11:08;;;;;;;1.90;1.48;;;11.20;99.90;;;;;;4844485;29;20786;-74
2024/02/11 13:13:35;;;;;;;2.72;1.75;;;11.20;99.90;;;;;;4843271;29;20333;-73
2024/02/11 13:16:05;;;;;;;3.03;1.50;;;11.20;99.90;;;;;;4844114;29;20109;-74